Time;durP1;ratioP1;P1;durP2;ratioP2;P2;SDS_P1;SDS_P2;PMS_P1;PMS_P2;Temp;Humidity;BMP_temperature;BMP_pressure;BME280_temperature;BME280_humidity;BME280_pressure;Samples;Min_cycle;Max_cycle;Signal;HPM_P1;HPM_P2
2022/08/12 00:43:58;;;;;;;7.97;4.03;;;21.30;99.90;;;;;;5070881;28;20476;-92
2022/08/12 00:46:35;;;;;;;8.60;3.70;;;21.20;99.90;;;;;;5070731;28;20556;-91
2022/08/12 00:49:01;;;;;;;10.00;4.10;;;21.10;99.90;;;;;;5019106;28;1027751;-92
2022/08/12 00:52:04;;;;;;;8.45;4.38;;;20.90;99.90;;;;;;5054799;28;20090;-91
2022/08/12 00:54:15;;;;;;;9.35;4.70;;;20.80;99.90;;;;;;5070945;28;20040;-91
2022/08/12 00:56:41;;;;;;;7.43;4.30;;;20.70;99.90;;;;;;5071786;28;20047;-91
2022/08/12 00:59:07;;;;;;;8.68;4.68;;;20.50;99.90;;;;;;5071178;28;20041;-91
2022/08/12 01:01:35;;;;;;;9.50;4.60;;;20.40;99.90;;;;;;5054811;28;20513;-91
2022/08/12 01:12:25;;;;;;;11.07;5.35;;;20.00;99.90;;;;;;5070992;28;20048;-91
2022/08/12 01:14:52;;;;;;;9.68;5.20;;;19.90;99.90;;;;;;5054234;28;20047;-91
2022/08/12 01:17:21;;;;;;;9.80;5.00;;;19.90;99.90;;;;;;5054534;28;20040;-91
2022/08/12 01:19:51;;;;;;;8.23;4.85;;;19.80;99.90;;;;;;5070672;28;20278;-91
2022/08/12 01:22:29;;;;;;;7.95;4.85;;;19.80;99.90;;;;;;5070807;28;20410;-91
2022/08/12 01:25:31;;;;;;;11.05;4.97;;;19.80;99.90;;;;;;5054696;28;20394;-91
2022/08/12 01:27:59;;;;;;;8.98;4.50;;;19.70;99.90;;;;;;5031982;28;20048;-91
2022/08/12 01:30:29;;;;;;;9.30;4.80;;;19.60;99.90;;;;;;5070614;28;20040;-91
2022/08/12 01:32:58;;;;;;;9.40;5.25;;;19.60;99.90;;;;;;5070519;28;20036;-91
2022/08/12 01:35:25;;;;;;;8.93;4.60;;;19.50;99.90;;;;;;5070745;28;20036;-91
2022/08/12 01:37:58;;;;;;;9.18;5.10;;;19.50;99.90;;;;;;5053891;28;20526;-91
2022/08/12 01:40:27;;;;;;;10.40;5.30;;;19.50;99.90;;;;;;5070743;28;20040;-91
2022/08/12 01:42:58;;;;;;;8.90;5.43;;;19.50;99.90;;;;;;5070171;28;20564;-91
2022/08/12 01:45:25;;;;;;;8.57;4.95;;;19.50;99.90;;;;;;5070584;28;20050;-91
2022/08/12 01:48:18;;;;;;;10.35;4.88;;;19.50;99.90;;;;;;5070676;28;20201;-91
2022/08/12 01:51:12;;;;;;;9.35;5.40;;;19.40;99.90;;;;;;5070348;28;20062;-91
2022/08/12 01:54:03;;;;;;;9.95;5.38;;;19.40;99.90;;;;;;5054016;28;20066;-91
2022/08/12 01:56:55;;;;;;;10.23;5.30;;;19.40;99.90;;;;;;5065721;28;20131;-91
2022/08/12 01:59:46;;;;;;;11.18;5.38;;;19.30;99.90;;;;;;5053149;28;20513;-91
2022/08/12 02:02:25;;;;;;;10.60;5.05;;;19.30;99.90;;;;;;5053318;28;20045;-91
2022/08/12 02:11:18;;;;;;;10.88;5.38;;;19.30;99.90;;;;;;5070111;28;20481;-91
2022/08/12 02:14:35;;;;;;;8.27;5.30;;;19.30;99.90;;;;;;5070143;28;20039;-91
2022/08/12 02:17:18;;;;;;;9.63;5.22;;;19.20;99.90;;;;;;5015857;28;20045;-91
2022/08/12 02:19:58;;;;;;;8.38;5.18;;;19.20;99.90;;;;;;5032450;28;20549;-91
2022/08/12 02:22:29;;;;;;;10.10;5.03;;;19.20;99.90;;;;;;5031834;28;20168;-91
2022/08/12 02:25:08;;;;;;;10.68;5.57;;;19.20;99.90;;;;;;5032293;28;20086;-92
2022/08/12 02:27:44;;;;;;;14.20;5.72;;;19.20;99.90;;;;;;5032487;28;20052;-91
2022/08/12 02:30:18;;;;;;;12.85;5.55;;;19.10;99.90;;;;;;5031988;28;20052;-91
2022/08/12 02:32:45;;;;;;;8.50;5.30;;;19.10;99.90;;;;;;5031687;28;20573;-91
2022/08/12 02:35:13;;;;;;;8.60;5.03;;;19.00;99.90;;;;;;5015698;28;20048;-91
2022/08/12 02:37:40;;;;;;;11.77;6.38;;;19.00;99.90;;;;;;5032056;28;20521;-91
2022/08/12 02:40:08;;;;;;;10.93;5.80;;;19.00;99.90;;;;;;5015774;28;20055;-91
2022/08/12 02:42:35;;;;;;;8.77;5.97;;;19.00;99.90;;;;;;5014978;28;20041;-91
2022/08/12 02:45:06;;;;;;;10.93;6.07;;;19.00;99.90;;;;;;5031809;28;20048;-91
2022/08/12 02:47:41;;;;;;;13.50;6.18;;;19.00;99.90;;;;;;5031755;28;20045;-91
2022/08/12 02:50:08;;;;;;;8.45;5.28;;;19.00;99.90;;;;;;5032112;28;20041;-91
2022/08/12 02:52:35;;;;;;;9.05;6.10;;;19.00;99.90;;;;;;5031876;28;20051;-91
2022/08/12 02:55:20;;;;;;;8.52;5.15;;;19.00;99.90;;;;;;5053055;28;21025;-91
2022/08/12 02:57:47;;;;;;;10.90;5.88;;;18.90;99.90;;;;;;5070851;28;20040;-91
2022/08/12 03:00:17;;;;;;;10.65;6.07;;;18.90;99.90;;;;;;5069527;28;20116;-91
2022/08/12 03:02:45;;;;;;;8.88;5.70;;;18.80;99.90;;;;;;5069313;28;20082;-91
2022/08/12 03:05:16;;;;;;;10.32;5.95;;;18.80;99.90;;;;;;5069820;28;20043;-91
2022/08/12 03:07:53;;;;;;;8.73;5.32;;;18.80;99.90;;;;;;5053051;28;20051;-91
2022/08/12 03:10:23;;;;;;;11.55;6.00;;;18.80;99.90;;;;;;5069546;28;20048;-91
2022/08/12 03:12:53;;;;;;;8.82;5.88;;;18.80;99.90;;;;;;5069444;28;20043;-91
2022/08/12 03:15:22;;;;;;;9.45;5.93;;;18.70;99.90;;;;;;5053072;28;20044;-91
2022/08/12 03:18:13;;;;;;;10.40;6.57;;;18.70;99.90;;;;;;5052755;28;20045;-91
2022/08/12 03:20:41;;;;;;;8.68;6.07;;;18.60;99.90;;;;;;5052643;28;20056;-91
2022/08/12 03:23:12;;;;;;;10.07;6.35;;;18.50;99.90;;;;;;5069050;28;20517;-91
2022/08/12 03:25:39;;;;;;;10.43;6.50;;;18.50;99.90;;;;;;5052874;28;20058;-92
2022/08/12 03:28:08;;;;;;;11.77;6.90;;;18.50;99.90;;;;;;5052767;28;20119;-91
2022/08/12 03:30:36;;;;;;;9.25;6.18;;;18.40;99.90;;;;;;5052476;28;20076;-91
2022/08/12 03:33:03;;;;;;;12.75;6.75;;;18.40;99.90;;;;;;5069028;28;20040;-91
2022/08/12 03:35:32;;;;;;;9.80;6.28;;;18.30;99.90;;;;;;5052558;28;20045;-92
2022/08/12 03:38:08;;;;;;;11.02;7.32;;;18.30;99.90;;;;;;5069373;28;20410;-91
2022/08/12 04:00:34;;;;;;;9.18;6.00;;;17.90;99.90;;;;;;5072429;28;20041;-91
2022/08/12 04:03:00;;;;;;;10.63;5.93;;;17.90;99.90;;;;;;5055686;28;20044;-91
2022/08/12 04:05:30;;;;;;;9.98;6.38;;;17.80;99.90;;;;;;5055976;28;20039;-91
2022/08/12 04:07:58;;;;;;;11.20;6.63;;;17.80;99.90;;;;;;5055990;28;20405;-91
2022/08/12 04:13:14;;;;;;;9.65;6.85;;;17.80;99.90;;;;;;5055745;28;20037;-91
2022/08/12 04:13:20;;;;;;;10.13;6.70;;;17.80;99.90;;;;;;5071926;28;20164;-91
2022/08/12 04:15:46;;;;;;;9.13;4.32;;;17.80;99.90;;;;;;5072219;28;20123;-91
2022/08/12 04:18:14;;;;;;;10.65;7.07;;;17.70;99.90;;;;;;5072349;28;20086;-91
2022/08/12 04:20:46;;;;;;;9.85;6.95;;;17.70;99.90;;;;;;5072234;28;20041;-91
2022/08/12 04:23:15;;;;;;;9.02;4.43;;;17.70;99.90;;;;;;5071844;28;20440;-91
2022/08/12 04:25:41;;;;;;;12.25;6.45;;;17.60;99.90;;;;;;5072184;28;20071;-91
2022/08/12 04:28:08;;;;;;;11.63;7.78;;;17.60;99.90;;;;;;5072265;28;20076;-91
2022/08/12 04:30:35;;;;;;;13.07;6.97;;;17.60;99.90;;;;;;5072141;28;20131;-91
2022/08/12 04:33:01;;;;;;;10.48;6.88;;;17.60;99.90;;;;;;5071327;28;20044;-91
2022/08/12 04:35:27;;;;;;;13.18;7.28;;;17.60;99.90;;;;;;5072270;28;20050;-91
2022/08/12 04:37:55;;;;;;;9.80;6.88;;;17.60;99.90;;;;;;5055051;28;20051;-91
2022/08/12 04:40:23;;;;;;;11.05;6.70;;;17.50;99.90;;;;;;5071947;28;20063;-91
2022/08/12 04:42:50;;;;;;;11.25;6.70;;;17.50;99.90;;;;;;5055023;28;20084;-91
2022/08/12 04:45:19;;;;;;;12.77;7.47;;;17.50;99.90;;;;;;5071624;28;20115;-90
2022/08/12 04:47:45;;;;;;;9.88;6.40;;;17.60;99.90;;;;;;5071610;28;20041;-91
2022/08/12 04:50:15;;;;;;;10.23;7.32;;;17.60;99.90;;;;;;5071589;28;20036;-91
2022/08/12 04:52:41;;;;;;;10.73;6.72;;;17.60;99.90;;;;;;5053721;28;20109;-91
2022/08/12 04:55:09;;;;;;;10.55;6.55;;;17.70;99.90;;;;;;5054897;28;20048;-91
2022/08/12 04:57:35;;;;;;;11.38;6.82;;;17.70;99.90;;;;;;5071673;28;20044;-91
2022/08/12 05:00:01;;;;;;;11.50;7.00;;;17.70;99.90;;;;;;5071317;28;20033;-91
2022/08/12 05:02:26;;;;;;;13.43;7.47;;;17.80;99.90;;;;;;5071165;28;20047;-91
2022/08/12 05:04:57;;;;;;;12.40;7.10;;;17.80;99.90;;;;;;5053410;28;20477;-91
2022/08/12 05:07:22;;;;;;;12.30;7.50;;;17.80;99.90;;;;;;5071245;28;20037;-91
2022/08/12 05:09:48;;;;;;;9.52;7.35;;;17.80;99.90;;;;;;5071418;28;20127;-91
2022/08/12 05:12:18;;;;;;;11.00;7.32;;;17.80;99.90;;;;;;5054358;28;20036;-91
2022/08/12 05:14:44;;;;;;;10.98;7.95;;;17.90;99.90;;;;;;5071021;28;20044;-91
2022/08/12 05:17:10;;;;;;;12.93;7.43;;;17.80;99.90;;;;;;5054442;28;20037;-90
2022/08/12 05:19:35;;;;;;;10.77;7.53;;;17.90;99.90;;;;;;5071004;28;20046;-91
2022/08/12 05:22:01;;;;;;;10.85;7.68;;;17.90;99.90;;;;;;5054051;28;20083;-91
2022/08/12 05:24:27;;;;;;;11.57;8.10;;;17.90;99.90;;;;;;5070939;28;20401;-91
2022/08/12 05:26:53;;;;;;;11.75;7.72;;;17.90;99.90;;;;;;5071247;28;20086;-91
2022/08/12 05:29:19;;;;;;;11.18;6.90;;;18.00;99.90;;;;;;5054106;28;20036;-91
2022/08/12 05:31:44;;;;;;;10.52;6.75;;;18.00;99.90;;;;;;5054163;28;20043;-92
2022/08/12 05:34:13;;;;;;;10.13;6.72;;;18.10;99.90;;;;;;5054507;28;20130;-91
2022/08/12 05:36:40;;;;;;;11.50;6.05;;;18.20;99.90;;;;;;5070762;28;20052;-92
2022/08/12 05:39:06;;;;;;;10.93;5.78;;;18.30;99.90;;;;;;5070802;28;20040;-91
2022/08/12 05:41:34;;;;;;;10.77;5.90;;;18.30;99.90;;;;;;5070299;28;20040;-91
2022/08/12 05:44:08;;;;;;;9.98;5.78;;;18.40;99.90;;;;;;5053560;28;20040;-91
2022/08/12 05:46:36;;;;;;;11.23;5.93;;;18.50;99.90;;;;;;5070930;28;20401;-91
2022/08/12 05:49:03;;;;;;;9.68;5.45;;;18.60;99.90;;;;;;5053723;28;20398;-91
2022/08/12 05:51:36;;;;;;;9.32;5.40;;;18.60;99.90;;;;;;5053541;28;20052;-91
2022/08/12 05:54:03;;;;;;;8.77;5.07;;;18.70;99.90;;;;;;5070293;28;20040;-91
2022/08/12 05:56:34;;;;;;;9.07;4.78;;;18.80;99.90;;;;;;5053966;28;20135;-91
2022/08/12 05:59:02;;;;;;;9.07;5.10;;;18.80;99.90;;;;;;5053722;28;20043;-91
2022/08/12 06:01:29;;;;;;;9.35;5.15;;;18.90;99.90;;;;;;5053367;28;20114;-91
2022/08/12 06:03:55;;;;;;;10.55;5.22;;;19.00;99.90;;;;;;5053312;28;20054;-91
2022/08/12 06:06:22;;;;;;;9.35;5.10;;;19.00;99.90;;;;;;5064182;28;20033;-91
2022/08/12 06:08:52;;;;;;;8.70;4.70;;;19.10;99.90;;;;;;5053615;28;20044;-91
2022/08/12 06:11:19;;;;;;;10.18;5.20;;;19.10;99.90;;;;;;5049997;28;20041;-91
2022/08/12 06:13:45;;;;;;;9.77;4.60;;;19.20;99.90;;;;;;5050215;28;20045;-92
2022/08/12 06:16:15;;;;;;;11.57;4.88;;;19.30;99.90;;;;;;5050404;28;20488;-91
2022/08/12 06:18:41;;;;;;;7.72;4.20;;;19.40;99.90;;;;;;5033482;28;20037;-91
2022/08/12 06:21:08;;;;;;;8.80;4.00;;;19.40;99.90;;;;;;5049293;28;20059;-91
2022/08/12 06:23:34;;;;;;;10.30;4.63;;;19.50;99.90;;;;;;5049920;28;20564;-91
2022/08/12 06:26:00;;;;;;;8.75;4.18;;;19.50;99.90;;;;;;5050351;28;20033;-91
2022/08/12 06:28:29;;;;;;;9.13;4.50;;;19.60;99.90;;;;;;5069867;28;20229;-91
2022/08/12 06:30:55;;;;;;;10.63;4.38;;;19.70;99.90;;;;;;5052964;28;20079;-91
2022/08/12 06:33:21;;;;;;;9.40;3.90;;;19.80;99.90;;;;;;5053387;28;20045;-91
2022/08/12 06:35:48;;;;;;;9.15;3.90;;;19.90;99.90;;;;;;5069614;28;20036;-90
2022/08/12 06:38:22;;;;;;;10.05;4.38;;;19.90;99.90;;;;;;5053356;28;20052;-91
2022/08/12 06:43:37;;;;;;;11.27;4.00;;;20.10;99.90;;;;;;5070080;28;20056;-91
2022/08/12 06:46:04;;;;;;;7.88;3.97;;;20.20;99.90;;;;;;5069665;28;20559;-91
2022/08/12 06:48:30;;;;;;;8.02;4.00;;;20.20;99.90;;;;;;5052957;28;20040;-91
2022/08/12 06:50:57;;;;;;;8.73;3.90;;;20.30;99.90;;;;;;5052745;28;20044;-90
2022/08/12 06:53:25;;;;;;;9.70;3.95;;;20.40;99.90;;;;;;5052382;28;20127;-90
2022/08/12 06:55:55;;;;;;;8.90;3.78;;;20.50;99.90;;;;;;5053232;28;20166;-90
2022/08/12 06:58:23;;;;;;;11.65;4.10;;;20.60;99.90;;;;;;5069469;28;20051;-90
2022/08/12 07:00:50;;;;;;;9.48;3.95;;;20.70;99.90;;;;;;5069581;28;20127;-91
2022/08/12 07:03:20;;;;;;;9.00;3.95;;;20.70;99.90;;;;;;5052999;28;20440;-90
2022/08/12 07:05:46;;;;;;;9.15;3.80;;;20.90;99.90;;;;;;5052882;28;20028;-91
2022/08/12 07:08:15;;;;;;;8.88;3.95;;;21.00;99.90;;;;;;5069547;28;20127;-90
2022/08/12 07:10:44;;;;;;;9.40;3.85;;;21.00;99.90;;;;;;5052692;28;20062;-91
2022/08/12 07:13:10;;;;;;;6.40;3.47;;;21.10;99.90;;;;;;5052586;28;20493;-91
2022/08/12 07:15:36;;;;;;;8.68;3.45;;;21.20;99.90;;;;;;5052566;28;20036;-91
2022/08/12 07:18:10;;;;;;;9.43;3.90;;;21.30;99.90;;;;;;5073494;28;20040;-92
2022/08/12 07:20:41;;;;;;;12.15;3.80;;;21.40;99.90;;;;;;5073447;28;20036;-91
2022/08/12 07:23:06;;;;;;;14.30;4.45;;;21.40;99.90;;;;;;5073033;28;20032;-91
2022/08/12 07:25:33;;;;;;;9.25;3.90;;;21.50;99.90;;;;;;5073363;28;20037;-91
2022/08/12 07:28:02;;;;;;;10.93;3.85;;;21.60;99.90;;;;;;5056285;28;20090;-91
2022/08/12 07:30:31;;;;;;;12.73;4.53;;;21.70;99.90;;;;;;5073436;28;20071;-91
2022/08/12 07:33:00;;;;;;;8.57;4.10;;;21.80;99.90;;;;;;5072609;28;20044;-91
2022/08/12 07:35:27;;;;;;;9.60;4.20;;;21.90;99.90;;;;;;5073289;28;20063;-91
2022/08/12 07:37:52;;;;;;;9.00;4.20;;;22.00;99.90;;;;;;5072429;28;20051;-91
2022/08/12 07:40:19;;;;;;;10.10;3.80;;;22.00;99.90;;;;;;5058348;28;20044;-91
2022/08/12 07:42:45;;;;;;;8.55;3.90;;;22.10;99.90;;;;;;5049671;28;20033;-91
2022/08/12 07:45:11;;;;;;;9.23;3.90;;;22.20;99.90;;;;;;5072853;28;20039;-91
2022/08/12 07:47:42;;;;;;;8.93;3.92;;;22.30;99.90;;;;;;5056670;28;20048;-90
2022/08/12 07:50:12;;;;;;;9.23;3.47;;;22.40;99.90;;;;;;5056170;28;20436;-91
2022/08/12 07:52:45;;;;;;;8.35;3.75;;;22.50;99.90;;;;;;5068532;28;20501;-91
2022/08/12 07:55:13;;;;;;;9.52;3.67;;;22.60;99.90;;;;;;5046587;28;20052;-91
2022/08/12 07:57:52;;;;;;;10.15;4.18;;;22.70;99.90;;;;;;5061575;28;20418;-92
2022/08/12 08:00:17;;;;;;;7.72;3.60;;;22.80;99.90;;;;;;5067027;28;20040;-91
2022/08/12 08:02:43;;;;;;;9.68;3.63;;;22.80;99.90;;;;;;5068826;28;20124;-91
2022/08/12 08:05:08;;;;;;;8.05;3.45;;;23.00;99.90;;;;;;5061057;28;20029;-91
2022/08/12 08:07:34;;;;;;;10.23;3.70;;;23.00;99.50;;;;;;5062041;28;20040;-91
2022/08/12 08:10:03;;;;;;;9.43;3.45;;;23.10;98.60;;;;;;5046155;28;20045;-91
2022/08/12 08:15:14;;;;;;;8.82;4.07;;;23.30;98.70;;;;;;5062175;28;20040;-92
2022/08/12 08:17:51;;;;;;;8.90;4.20;;;23.40;98.10;;;;;;5061124;28;20052;-92
2022/08/12 08:20:22;;;;;;;9.43;3.83;;;23.40;97.30;;;;;;5063162;28;20029;-92
2022/08/12 08:22:47;;;;;;;9.25;4.32;;;23.60;97.00;;;;;;5045933;28;20093;-91
2022/08/12 08:25:13;;;;;;;7.60;3.28;;;23.60;96.30;;;;;;5044914;28;20468;-91
2022/08/12 08:27:45;;;;;;;10.48;3.60;;;23.70;92.70;;;;;;5069881;28;20036;-92
2022/08/12 08:30:12;;;;;;;9.38;3.70;;;23.80;92.40;;;;;;5071922;28;20040;-91
2022/08/12 08:32:39;;;;;;;9.18;3.45;;;24.00;91.10;;;;;;5054568;28;20575;-91
2022/08/12 08:35:07;;;;;;;10.93;4.28;;;24.00;92.40;;;;;;5072042;28;20627;-91
2022/08/12 08:37:33;;;;;;;11.13;4.25;;;24.10;92.00;;;;;;5055249;28;20044;-92
2022/08/12 08:42:35;;;;;;;10.15;3.65;;;24.20;91.50;;;;;;5055263;28;20045;-91
2022/08/12 08:42:44;;;;;;;8.43;3.63;;;24.30;89.30;;;;;;5070809;28;20702;-92
2022/08/12 08:45:11;;;;;;;8.18;3.30;;;24.40;90.30;;;;;;5071942;28;20131;-91
2022/08/12 08:47:47;;;;;;;8.90;3.20;;;24.50;88.70;;;;;;5055019;28;20119;-92
2022/08/12 08:50:14;;;;;;;9.20;3.25;;;24.60;85.80;;;;;;5055121;28;20044;-92
2022/08/12 08:52:44;;;;;;;7.88;3.00;;;24.60;82.90;;;;;;5054763;28;20044;-92
2022/08/12 08:55:15;;;;;;;8.40;3.28;;;24.70;79.80;;;;;;5055188;28;20409;-92
2022/08/12 08:57:43;;;;;;;8.23;3.70;;;24.80;78.40;;;;;;5054799;28;20490;-92
2022/08/12 09:00:18;;;;;;;9.63;3.50;;;25.00;78.90;;;;;;5055078;28;20036;-92
2022/08/12 09:02:45;;;;;;;9.85;3.58;;;25.10;77.60;;;;;;5072308;28;20591;-91
2022/08/12 09:05:11;;;;;;;7.22;3.17;;;25.10;74.80;;;;;;5071365;28;20044;-92
2022/08/12 09:07:42;;;;;;;12.00;4.78;;;25.20;74.50;;;;;;5071398;28;20044;-91
2022/08/12 09:10:08;;;;;;;7.82;3.20;;;25.30;75.10;;;;;;5071795;28;20047;-92
2022/08/12 09:15:18;;;;;;;8.55;3.45;;;25.50;74.80;;;;;;5071442;28;20056;-92
2022/08/12 09:17:54;;;;;;;10.02;2.97;;;25.60;75.70;;;;;;5072366;28;20040;-92
2022/08/12 09:20:21;;;;;;;9.13;3.22;;;25.70;78.50;;;;;;5054881;28;20596;-91
2022/08/12 09:22:48;;;;;;;10.25;3.08;;;25.80;78.60;;;;;;5070451;28;20102;-92
2022/08/12 09:25:15;;;;;;;7.18;2.80;;;25.90;76.60;;;;;;5070918;28;20040;-93
2022/08/12 09:27:41;;;;;;;9.45;3.25;;;26.10;76.60;;;;;;5070994;28;20047;-92
2022/08/12 09:30:14;;;;;;;7.78;3.10;;;26.20;75.30;;;;;;5054270;28;20173;-92
2022/08/12 09:32:41;;;;;;;10.93;3.67;;;26.30;73.90;;;;;;5053529;28;20040;-92
2022/08/12 09:35:08;;;;;;;9.63;2.88;;;26.40;72.40;;;;;;5070831;28;20075;-92
2022/08/12 09:37:34;;;;;;;8.60;3.05;;;26.50;71.70;;;;;;5072018;28;20040;-92
2022/08/12 09:39:59;;;;;;;8.05;3.20;;;26.60;71.80;;;;;;5070497;28;20044;-92
2022/08/12 09:45:21;;;;;;;8.35;2.90;;;26.80;67.50;;;;;;5070390;28;20040;-92
2022/08/12 09:47:50;;;;;;;7.55;3.00;;;26.80;66.60;;;;;;5070569;28;20119;-92
2022/08/12 09:50:17;;;;;;;7.78;2.72;;;26.90;65.20;;;;;;5071023;28;20052;-92
2022/08/12 09:52:44;;;;;;;7.13;2.92;;;27.10;63.60;;;;;;5071467;28;20061;-93
2022/08/12 09:55:13;;;;;;;6.90;2.70;;;27.10;64.70;;;;;;5069308;28;20123;-92
2022/08/12 09:57:38;;;;;;;7.00;2.80;;;27.20;64.00;;;;;;5059500;28;20136;-92
2022/08/12 10:00:10;;;;;;;7.20;2.90;;;27.30;63.10;;;;;;5042385;28;20124;-92
2022/08/12 10:02:37;;;;;;;7.78;2.83;;;27.40;61.30;;;;;;5063769;28;20041;-92
2022/08/12 10:05:04;;;;;;;6.80;2.58;;;27.50;60.70;;;;;;5071090;28;20036;-92
2022/08/12 10:07:30;;;;;;;7.68;2.80;;;27.60;59.00;;;;;;5068927;28;20041;-92
2022/08/12 10:09:56;;;;;;;7.30;2.70;;;27.70;59.00;;;;;;5070355;28;20037;-92
2022/08/12 10:15:06;;;;;;;9.48;2.67;;;27.90;58.50;;;;;;5069683;28;20437;-91
2022/08/12 10:17:31;;;;;;;6.50;2.42;;;27.90;57.00;;;;;;5068435;28;20039;-92
2022/08/12 10:19:57;;;;;;;7.03;2.80;;;28.00;57.00;;;;;;5067935;28;20037;-92
2022/08/12 10:22:23;;;;;;;9.25;2.90;;;28.10;56.10;;;;;;5051397;28;20066;-92
2022/08/12 10:29:35;;;;;;;7.72;2.70;;;28.20;55.80;;;;;;5068955;28;20045;-92
2022/08/12 10:30:19;;;;;;;7.43;2.65;;;28.40;55.70;;;;;;5055099;28;20037;-93
2022/08/12 10:32:57;;;;;;;11.07;3.17;;;28.40;55.80;;;;;;5069216;28;20459;-92
2022/08/12 10:35:25;;;;;;;6.80;2.70;;;28.50;56.10;;;;;;5069928;28;20485;-92
2022/08/12 10:37:50;;;;;;;7.93;2.80;;;28.60;55.20;;;;;;5053088;28;20048;-92
2022/08/12 10:40:16;;;;;;;7.22;2.70;;;28.70;54.90;;;;;;5053497;28;20040;-92
2022/08/12 10:45:26;;;;;;;8.10;3.00;;;28.90;53.80;;;;;;5070496;28;20045;-92
2022/08/12 10:47:52;;;;;;;7.43;2.88;;;29.00;52.50;;;;;;5069440;28;20048;-92
2022/08/12 10:50:21;;;;;;;8.48;2.83;;;29.10;52.10;;;;;;5054511;28;20044;-92
2022/08/12 10:52:46;;;;;;;8.38;2.63;;;29.10;51.50;;;;;;5057035;28;20505;-92
2022/08/12 10:55:12;;;;;;;6.85;2.35;;;29.20;51.00;;;;;;5075159;28;20044;-92
2022/08/12 10:57:38;;;;;;;7.15;2.28;;;29.30;50.50;;;;;;5073886;28;20256;-92
2022/08/12 11:00:05;;;;;;;8.70;2.50;;;29.40;50.40;;;;;;5040455;28;20460;-92
2022/08/12 11:02:31;;;;;;;11.10;2.10;;;29.40;48.90;;;;;;5073080;28;20048;-92
2022/08/12 11:04:58;;;;;;;9.75;2.40;;;29.50;48.70;;;;;;5074010;28;20044;-92
2022/08/12 11:07:25;;;;;;;6.53;2.17;;;29.60;48.30;;;;;;5057009;28;20045;-92
2022/08/12 11:09:52;;;;;;;7.38;2.28;;;29.70;47.70;;;;;;5073796;28;20406;-92
2022/08/12 11:12:17;;;;;;;6.95;2.25;;;29.80;48.00;;;;;;5072881;28;20067;-92
2022/08/12 11:14:43;;;;;;;8.40;2.50;;;29.80;47.20;;;;;;5070405;28;20149;-92
2022/08/12 11:17:11;;;;;;;5.80;2.20;;;29.90;46.30;;;;;;5059811;28;20044;-92
2022/08/12 11:19:39;;;;;;;5.97;2.40;;;30.00;46.90;;;;;;5036768;28;20128;-91
2022/08/12 11:22:06;;;;;;;6.80;2.42;;;30.00;46.20;;;;;;5053358;28;20057;-92
2022/08/12 11:24:32;;;;;;;6.90;2.30;;;30.10;45.70;;;;;;5053135;28;20040;-92
2022/08/12 11:27:00;;;;;;;6.35;2.30;;;30.20;46.80;;;;;;5036619;28;20037;-92
2022/08/12 11:29:27;;;;;;;7.03;2.42;;;30.40;47.00;;;;;;5053137;28;20047;-92
2022/08/12 11:31:53;;;;;;;8.52;2.60;;;30.40;46.40;;;;;;5054183;28;20075;-92
2022/08/12 11:34:20;;;;;;;7.18;2.20;;;30.60;45.30;;;;;;5053462;28;20080;-92
2022/08/12 11:36:57;;;;;;;11.30;2.55;;;30.60;45.90;;;;;;5036311;28;20090;-92
2022/08/12 11:39:23;;;;;;;6.50;2.50;;;30.80;45.30;;;;;;5052906;28;20044;-92
2022/08/12 11:41:49;;;;;;;9.25;2.28;;;30.80;45.00;;;;;;5052727;28;20087;-90
2022/08/12 11:44:16;;;;;;;8.40;2.67;;;30.90;44.20;;;;;;5055757;28;20033;-90
2022/08/12 11:46:42;;;;;;;6.72;2.65;;;31.00;43.50;;;;;;5036444;28;20040;-90
2022/08/12 11:49:08;;;;;;;9.73;2.65;;;31.10;43.50;;;;;;5054134;28;20037;-90
2022/08/12 11:51:36;;;;;;;5.90;2.53;;;31.10;43.80;;;;;;5073456;28;20040;-90
2022/08/12 11:54:02;;;;;;;7.63;2.95;;;31.20;43.10;;;;;;5043512;28;20044;-91
2022/08/12 11:56:28;;;;;;;8.20;2.90;;;31.30;43.60;;;;;;5053003;28;20048;-91
2022/08/12 11:58:54;;;;;;;7.63;2.20;;;31.40;43.10;;;;;;5035843;28;20520;-90
2022/08/12 12:01:20;;;;;;;10.80;4.05;;;31.40;42.30;;;;;;5052498;28;20450;-91
2022/08/12 12:03:46;;;;;;;9.50;2.90;;;31.50;43.10;;;;;;5035612;28;20482;-90
2022/08/12 12:06:16;;;;;;;8.15;2.70;;;31.60;42.30;;;;;;5035620;28;20041;-91
2022/08/12 12:08:42;;;;;;;6.45;2.88;;;31.70;43.60;;;;;;5053015;28;20049;-91
2022/08/12 12:11:08;;;;;;;8.02;2.95;;;31.90;43.60;;;;;;5052280;28;20087;-91
2022/08/12 12:13:33;;;;;;;8.52;2.50;;;32.00;42.90;;;;;;5053654;28;20414;-91
2022/08/12 12:15:59;;;;;;;8.13;2.80;;;32.10;42.10;;;;;;5072386;28;20115;-91
2022/08/12 12:18:27;;;;;;;7.90;2.80;;;32.10;41.80;;;;;;5072371;28;20455;-91
2022/08/12 12:20:56;;;;;;;8.60;3.00;;;32.20;42.40;;;;;;5071938;28;20033;-91
2022/08/12 12:23:21;;;;;;;9.25;2.75;;;32.30;41.30;;;;;;5055795;28;20505;-91
2022/08/12 12:25:47;;;;;;;6.82;2.65;;;32.40;41.30;;;;;;5055679;28;20045;-91
2022/08/12 12:28:13;;;;;;;6.65;2.50;;;32.50;40.70;;;;;;5073099;28;20111;-91
2022/08/12 12:30:39;;;;;;;6.63;2.78;;;32.60;41.00;;;;;;5073332;28;20049;-91
2022/08/12 12:33:06;;;;;;;7.80;2.90;;;32.70;41.00;;;;;;5071775;28;20037;-92
2022/08/12 12:35:32;;;;;;;7.95;2.90;;;32.80;40.30;;;;;;5054837;28;20047;-91
2022/08/12 12:38:00;;;;;;;5.85;2.50;;;32.90;40.60;;;;;;5055356;28;20101;-91
2022/08/12 12:40:28;;;;;;;8.68;2.83;;;32.90;38.50;;;;;;5054720;28;20094;-91
2022/08/12 12:42:54;;;;;;;7.05;2.75;;;33.00;39.40;;;;;;5055004;28;20047;-91
2022/08/12 12:45:21;;;;;;;5.88;2.42;;;33.10;39.30;;;;;;5071863;28;20037;-90
2022/08/12 12:48:06;;;;;;;5.72;2.50;;;33.10;38.90;;;;;;5071562;28;20048;-91
2022/08/12 12:50:37;;;;;;;6.60;2.58;;;33.20;38.10;;;;;;5072125;28;20079;-90
2022/08/12 12:53:04;;;;;;;8.57;2.60;;;33.20;38.80;;;;;;5054893;28;20047;-91
2022/08/12 12:55:34;;;;;;;7.47;2.60;;;33.40;39.20;;;;;;5071605;28;20040;-91
2022/08/12 12:58:03;;;;;;;8.15;2.70;;;33.40;38.10;;;;;;5054352;28;20501;-91
2022/08/12 13:00:31;;;;;;;7.05;2.70;;;33.50;38.30;;;;;;5054680;28;20040;-91
2022/08/12 13:02:57;;;;;;;9.30;2.80;;;33.60;38.30;;;;;;5072549;28;20071;-91
2022/08/12 13:05:35;;;;;;;7.75;2.92;;;33.70;37.60;;;;;;5064371;28;20120;-91
2022/08/12 13:08:03;;;;;;;6.60;2.50;;;33.80;38.70;;;;;;5063970;28;20041;-91
2022/08/12 13:10:30;;;;;;;7.60;2.65;;;34.00;37.90;;;;;;5054636;28;20070;-91
2022/08/12 13:12:56;;;;;;;6.65;2.60;;;34.20;38.10;;;;;;5071943;28;20041;-92
2022/08/12 13:15:22;;;;;;;6.13;2.25;;;34.30;38.10;;;;;;5071696;28;20405;-92
2022/08/12 13:17:50;;;;;;;5.88;2.63;;;34.30;37.70;;;;;;5071519;28;20409;-92
2022/08/12 13:20:17;;;;;;;9.25;3.13;;;34.40;38.50;;;;;;5054637;28;20040;-92
2022/08/12 13:22:44;;;;;;;6.20;2.40;;;34.50;38.40;;;;;;5070928;28;20054;-92
2022/08/12 13:25:11;;;;;;;6.38;2.42;;;34.70;39.20;;;;;;5038047;28;20036;-92
2022/08/12 13:27:44;;;;;;;6.53;2.60;;;34.80;37.70;;;;;;5071883;28;20094;-91
2022/08/12 13:30:12;;;;;;;8.75;2.67;;;35.00;36.70;;;;;;5054575;28;20048;-92
2022/08/12 13:32:49;;;;;;;6.80;2.40;;;35.00;36.00;;;;;;5070716;28;20173;-91
2022/08/12 13:35:15;;;;;;;8.90;2.72;;;35.10;36.80;;;;;;5054009;28;20036;-92
2022/08/12 13:37:52;;;;;;;9.13;3.08;;;35.20;37.10;;;;;;5070546;28;20493;-91
2022/08/12 13:40:28;;;;;;;7.15;2.92;;;35.30;36.50;;;;;;5054233;28;20037;-91
2022/08/12 13:42:57;;;;;;;7.82;2.63;;;35.10;35.90;;;;;;5053403;28;20041;-91
2022/08/12 13:45:25;;;;;;;6.75;3.05;;;35.10;35.90;;;;;;5054533;28;20040;-91
2022/08/12 13:47:54;;;;;;;7.15;2.55;;;35.10;35.70;;;;;;5068720;28;20058;-91
2022/08/12 13:50:31;;;;;;;6.65;2.70;;;35.10;36.80;;;;;;5035612;28;20045;-90
2022/08/12 13:53:00;;;;;;;6.68;2.80;;;35.20;36.30;;;;;;5050177;28;20045;-91
2022/08/12 13:55:27;;;;;;;9.27;3.17;;;35.40;36.40;;;;;;5056979;28;20041;-92
2022/08/12 13:57:53;;;;;;;7.95;2.90;;;35.60;35.90;;;;;;5058759;28;20062;-91
2022/08/12 14:00:20;;;;;;;8.50;2.60;;;35.70;35.80;;;;;;5059977;28;20037;-91
2022/08/12 14:02:46;;;;;;;6.00;2.40;;;35.70;35.30;;;;;;5059074;28;20032;-91
2022/08/12 14:05:13;;;;;;;6.70;2.50;;;35.60;34.20;;;;;;5059761;28;20086;-91
2022/08/12 14:07:58;;;;;;;6.60;2.53;;;35.60;34.70;;;;;;5042702;28;20517;-92
2022/08/12 14:10:36;;;;;;;8.27;2.42;;;35.70;36.00;;;;;;5060815;28;20032;-91
2022/08/12 14:13:06;;;;;;;6.50;2.55;;;35.80;35.10;;;;;;5052559;28;20056;-92
2022/08/12 14:15:37;;;;;;;6.70;2.47;;;35.80;34.90;;;;;;5051215;28;20033;-91
2022/08/12 14:18:20;;;;;;;5.25;2.30;;;35.80;34.80;;;;;;5033601;28;20041;-91
2022/08/12 14:20:53;;;;;;;5.15;2.30;;;35.90;34.60;;;;;;5050125;28;20037;-91
2022/08/12 14:23:19;;;;;;;5.30;2.00;;;35.90;35.00;;;;;;5050107;28;20036;-92
2022/08/12 14:25:46;;;;;;;7.85;2.55;;;35.90;34.50;;;;;;5049188;28;20506;-92
2022/08/12 14:28:15;;;;;;;6.55;2.15;;;36.10;35.00;;;;;;5033503;28;20406;-91
2022/08/12 14:30:52;;;;;;;6.68;2.33;;;36.20;35.10;;;;;;5051234;28;20040;-92